sensor_id;sensor_type;location;lat;lon;timestamp;temperature;humidity
48752;DHT22;34544;48.836;9.174;2022-10-30T00:00:14;13.00;99.90
48752;DHT22;34544;48.836;9.174;2022-10-30T00:02:39;13.00;99.90
48752;DHT22;34544;48.836;9.174;2022-10-30T00:05:05;13.00;99.90
48752;DHT22;34544;48.836;9.174;2022-10-30T00:07:32;13.00;99.90
48752;DHT22;34544;48.836;9.174;2022-10-30T00:09:57;13.00;99.90
48752;DHT22;34544;48.836;9.174;2022-10-30T00:12:23;12.90;99.90
48752;DHT22;34544;48.836;9.174;2022-10-30T00:14:49;12.90;99.90
48752;DHT22;34544;48.836;9.174;2022-10-30T00:17:14;12.90;99.90
48752;DHT22;34544;48.836;9.174;2022-10-30T00:19:40;12.90;99.90
48752;DHT22;34544;48.836;9.174;2022-10-30T00:22:05;13.00;99.90
48752;DHT22;34544;48.836;9.174;2022-10-30T00:24:31;12.90;99.90
48752;DHT22;34544;48.836;9.174;2022-10-30T00:26:57;12.90;99.90
48752;DHT22;34544;48.836;9.174;2022-10-30T00:29:22;12.90;99.90
48752;DHT22;34544;48.836;9.174;2022-10-30T00:31:49;12.80;99.90
48752;DHT22;34544;48.836;9.174;2022-10-30T00:34:15;12.90;99.90
48752;DHT22;34544;48.836;9.174;2022-10-30T00:36:41;12.90;99.90
48752;DHT22;34544;48.836;9.174;2022-10-30T00:39:06;12.80;99.90
48752;DHT22;34544;48.836;9.174;2022-10-30T00:41:32;12.80;99.90
48752;DHT22;34544;48.836;9.174;2022-10-30T00:43:58;12.80;99.90
48752;DHT22;34544;48.836;9.174;2022-10-30T00:46:33;12.90;99.90
48752;DHT22;34544;48.836;9.174;2022-10-30T00:49:05;12.90;99.90
48752;DHT22;34544;48.836;9.174;2022-10-30T00:51:35;12.90;99.90
48752;DHT22;34544;48.836;9.174;2022-10-30T00:54:04;12.90;99.90
48752;DHT22;34544;48.836;9.174;2022-10-30T00:56:31;13.00;99.90
48752;DHT22;34544;48.836;9.174;2022-10-30T00:59:06;13.00;99.90
48752;DHT22;34544;48.836;9.174;2022-10-30T01:01:35;13.00;99.90
48752;DHT22;34544;48.836;9.174;2022-10-30T01:04:03;13.00;99.90
48752;DHT22;34544;48.836;9.174;2022-10-30T01:06:32;13.10;99.90
48752;DHT22;34544;48.836;9.174;2022-10-30T01:08:58;13.10;99.90
48752;DHT22;34544;48.836;9.174;2022-10-30T01:11:24;13.10;99.90
48752;DHT22;34544;48.836;9.174;2022-10-30T01:13:52;13.10;99.90
48752;DHT22;34544;48.836;9.174;2022-10-30T01:28:11;13.20;99.90
48752;DHT22;34544;48.836;9.174;2022-10-30T01:30:41;13.20;99.90
48752;DHT22;34544;48.836;9.174;2022-10-30T01:36:13;13.20;99.90
48752;DHT22;34544;48.836;9.174;2022-10-30T01:38:59;13.20;99.90
48752;DHT22;34544;48.836;9.174;2022-10-30T01:41:26;13.20;99.90
48752;DHT22;34544;48.836;9.174;2022-10-30T01:43:55;13.20;99.90
48752;DHT22;34544;48.836;9.174;2022-10-30T01:49:44;13.10;99.90
48752;DHT22;34544;48.836;9.174;2022-10-30T01:52:41;13.10;99.90
48752;DHT22;34544;48.836;9.174;2022-10-30T01:57:50;13.00;99.90
48752;DHT22;34544;48.836;9.174;2022-10-30T02:00:18;13.00;99.90
48752;DHT22;34544;48.836;9.174;2022-10-30T02:02:47;13.00;99.90
48752;DHT22;34544;48.836;9.174;2022-10-30T02:05:20;13.00;99.90
48752;DHT22;34544;48.836;9.174;2022-10-30T02:07:49;13.00;99.90
48752;DHT22;34544;48.836;9.174;2022-10-30T02:10:16;13.00;99.90
48752;DHT22;34544;48.836;9.174;2022-10-30T02:12:42;13.00;99.90
48752;DHT22;34544;48.836;9.174;2022-10-30T02:15:10;13.00;99.90
48752;DHT22;34544;48.836;9.174;2022-10-30T02:17:36;13.00;99.90
48752;DHT22;34544;48.836;9.174;2022-10-30T02:20:05;13.00;99.90
48752;DHT22;34544;48.836;9.174;2022-10-30T02:22:31;13.00;99.90
48752;DHT22;34544;48.836;9.174;2022-10-30T02:24:57;13.00;99.90
48752;DHT22;34544;48.836;9.174;2022-10-30T02:27:23;13.00;99.90
48752;DHT22;34544;48.836;9.174;2022-10-30T02:29:49;13.00;99.90
48752;DHT22;34544;48.836;9.174;2022-10-30T02:32:15;13.00;99.90
48752;DHT22;34544;48.836;9.174;2022-10-30T02:34:41;13.00;99.90
48752;DHT22;34544;48.836;9.174;2022-10-30T02:37:08;13.00;99.90
48752;DHT22;34544;48.836;9.174;2022-10-30T02:39:34;13.00;99.90
48752;DHT22;34544;48.836;9.174;2022-10-30T02:42:00;13.00;99.90
48752;DHT22;34544;48.836;9.174;2022-10-30T02:44:26;13.00;99.90
48752;DHT22;34544;48.836;9.174;2022-10-30T02:46:52;12.90;99.90
48752;DHT22;34544;48.836;9.174;2022-10-30T02:49:17;12.90;99.90
48752;DHT22;34544;48.836;9.174;2022-10-30T02:51:44;12.90;99.90
48752;DHT22;34544;48.836;9.174;2022-10-30T02:54:11;12.90;99.90
48752;DHT22;34544;48.836;9.174;2022-10-30T02:56:39;12.90;99.90
48752;DHT22;34544;48.836;9.174;2022-10-30T02:59:05;12.80;99.90
48752;DHT22;34544;48.836;9.174;2022-10-30T03:01:31;12.80;99.90
48752;DHT22;34544;48.836;9.174;2022-10-30T03:03:58;12.80;99.90
48752;DHT22;34544;48.836;9.174;2022-10-30T03:06:23;12.70;99.90
48752;DHT22;34544;48.836;9.174;2022-10-30T03:08:49;12.70;99.90
48752;DHT22;34544;48.836;9.174;2022-10-30T03:11:17;12.70;99.90
48752;DHT22;34544;48.836;9.174;2022-10-30T03:13:46;12.70;99.90
48752;DHT22;34544;48.836;9.174;2022-10-30T03:16:14;12.60;99.90
48752;DHT22;34544;48.836;9.174;2022-10-30T03:18:41;12.60;99.90
48752;DHT22;34544;48.836;9.174;2022-10-30T03:21:11;12.60;99.90
48752;DHT22;34544;48.836;9.174;2022-10-30T03:23:38;12.50;99.90
48752;DHT22;34544;48.836;9.174;2022-10-30T03:26:04;12.50;99.90
48752;DHT22;34544;48.836;9.174;2022-10-30T03:28:34;12.50;99.90
48752;DHT22;34544;48.836;9.174;2022-10-30T03:31:06;12.40;99.90
48752;DHT22;34544;48.836;9.174;2022-10-30T03:33:34;12.40;99.90
48752;DHT22;34544;48.836;9.174;2022-10-30T03:36:00;12.30;99.90
48752;DHT22;34544;48.836;9.174;2022-10-30T03:38:26;12.30;99.90
48752;DHT22;34544;48.836;9.174;2022-10-30T03:40:52;12.30;99.90
48752;DHT22;34544;48.836;9.174;2022-10-30T03:43:18;12.20;99.90
48752;DHT22;34544;48.836;9.174;2022-10-30T03:45:49;12.20;99.90
48752;DHT22;34544;48.836;9.174;2022-10-30T03:48:16;12.10;99.90
48752;DHT22;34544;48.836;9.174;2022-10-30T03:50:43;12.10;99.90
48752;DHT22;34544;48.836;9.174;2022-10-30T03:53:09;12.10;99.90
48752;DHT22;34544;48.836;9.174;2022-10-30T03:55:35;12.00;99.90
48752;DHT22;34544;48.836;9.174;2022-10-30T03:58:01;12.00;99.90
48752;DHT22;34544;48.836;9.174;2022-10-30T04:00:26;12.00;99.90
48752;DHT22;34544;48.836;9.174;2022-10-30T04:02:56;12.00;99.90
48752;DHT22;34544;48.836;9.174;2022-10-30T04:05:24;11.90;99.90
48752;DHT22;34544;48.836;9.174;2022-10-30T04:08:04;11.90;99.90
48752;DHT22;34544;48.836;9.174;2022-10-30T04:10:34;11.80;99.90
48752;DHT22;34544;48.836;9.174;2022-10-30T04:13:06;11.80;99.90
48752;DHT22;34544;48.836;9.174;2022-10-30T04:15:33;11.70;99.90
48752;DHT22;34544;48.836;9.174;2022-10-30T04:17:59;11.70;99.90
48752;DHT22;34544;48.836;9.174;2022-10-30T04:20:25;11.70;99.90
48752;DHT22;34544;48.836;9.174;2022-10-30T04:22:59;11.60;99.90
48752;DHT22;34544;48.836;9.174;2022-10-30T04:25:26;11.60;99.90
48752;DHT22;34544;48.836;9.174;2022-10-30T04:27:52;11.60;99.90
48752;DHT22;34544;48.836;9.174;2022-10-30T04:30:19;11.50;99.90
48752;DHT22;34544;48.836;9.174;2022-10-30T04:32:51;11.50;99.90
48752;DHT22;34544;48.836;9.174;2022-10-30T04:35:19;11.40;99.90
48752;DHT22;34544;48.836;9.174;2022-10-30T04:38:02;11.50;99.90
48752;DHT22;34544;48.836;9.174;2022-10-30T04:40:33;11.40;99.90
48752;DHT22;34544;48.836;9.174;2022-10-30T04:43:03;11.40;99.90
48752;DHT22;34544;48.836;9.174;2022-10-30T04:45:29;11.40;99.90
48752;DHT22;34544;48.836;9.174;2022-10-30T04:48:06;11.40;99.90
48752;DHT22;34544;48.836;9.174;2022-10-30T04:50:32;11.30;99.90
48752;DHT22;34544;48.836;9.174;2022-10-30T04:53:00;11.30;99.90
48752;DHT22;34544;48.836;9.174;2022-10-30T04:55:27;11.30;99.90
48752;DHT22;34544;48.836;9.174;2022-10-30T04:57:59;11.30;99.90
48752;DHT22;34544;48.836;9.174;2022-10-30T05:00:30;11.30;99.90
48752;DHT22;34544;48.836;9.174;2022-10-30T05:03:01;11.20;99.90
48752;DHT22;34544;48.836;9.174;2022-10-30T05:05:27;11.20;99.90
48752;DHT22;34544;48.836;9.174;2022-10-30T05:07:54;11.30;99.90
48752;DHT22;34544;48.836;9.174;2022-10-30T05:10:20;11.30;99.90
48752;DHT22;34544;48.836;9.174;2022-10-30T05:12:46;11.10;99.90
48752;DHT22;34544;48.836;9.174;2022-10-30T05:15:12;11.20;99.90
48752;DHT22;34544;48.836;9.174;2022-10-30T05:17:39;11.20;99.90
48752;DHT22;34544;48.836;9.174;2022-10-30T05:25:02;11.10;99.90
48752;DHT22;34544;48.836;9.174;2022-10-30T05:27:27;11.00;99.90
48752;DHT22;34544;48.836;9.174;2022-10-30T05:29:55;11.00;99.90
48752;DHT22;34544;48.836;9.174;2022-10-30T05:32:20;10.90;99.90
48752;DHT22;34544;48.836;9.174;2022-10-30T05:34:48;10.90;99.90
48752;DHT22;34544;48.836;9.174;2022-10-30T05:37:20;10.90;99.90
48752;DHT22;34544;48.836;9.174;2022-10-30T05:39:45;10.90;99.90
48752;DHT22;34544;48.836;9.174;2022-10-30T05:42:22;10.80;99.90
48752;DHT22;34544;48.836;9.174;2022-10-30T05:44:48;10.80;99.90
48752;DHT22;34544;48.836;9.174;2022-10-30T05:47:15;10.80;99.90
48752;DHT22;34544;48.836;9.174;2022-10-30T05:49:45;10.70;99.90
48752;DHT22;34544;48.836;9.174;2022-10-30T05:52:15;10.70;99.90
48752;DHT22;34544;48.836;9.174;2022-10-30T05:54:41;10.70;99.90
48752;DHT22;34544;48.836;9.174;2022-10-30T05:57:27;10.70;99.90
48752;DHT22;34544;48.836;9.174;2022-10-30T05:59:54;10.60;99.90
48752;DHT22;34544;48.836;9.174;2022-10-30T06:02:20;10.60;99.90
48752;DHT22;34544;48.836;9.174;2022-10-30T06:04:46;10.60;99.90
48752;DHT22;34544;48.836;9.174;2022-10-30T06:07:13;10.60;99.90
48752;DHT22;34544;48.836;9.174;2022-10-30T06:09:38;10.60;99.90
48752;DHT22;34544;48.836;9.174;2022-10-30T06:12:35;10.60;99.90
48752;DHT22;34544;48.836;9.174;2022-10-30T06:15:21;10.60;99.90
48752;DHT22;34544;48.836;9.174;2022-10-30T06:17:47;10.60;99.90
48752;DHT22;34544;48.836;9.174;2022-10-30T06:20:16;10.60;99.90
48752;DHT22;34544;48.836;9.174;2022-10-30T06:25:23;10.70;99.90
48752;DHT22;34544;48.836;9.174;2022-10-30T06:27:57;10.60;99.90
48752;DHT22;34544;48.836;9.174;2022-10-30T06:30:24;10.70;99.90
48752;DHT22;34544;48.836;9.174;2022-10-30T06:32:57;10.60;99.90
48752;DHT22;34544;48.836;9.174;2022-10-30T06:35:23;10.70;99.90
48752;DHT22;34544;48.836;9.174;2022-10-30T06:37:49;10.70;99.90
48752;DHT22;34544;48.836;9.174;2022-10-30T06:40:16;10.80;99.90
48752;DHT22;34544;48.836;9.174;2022-10-30T06:43:00;10.80;99.90
48752;DHT22;34544;48.836;9.174;2022-10-30T06:45:31;10.80;99.90
48752;DHT22;34544;48.836;9.174;2022-10-30T06:47:59;10.90;99.90
48752;DHT22;34544;48.836;9.174;2022-10-30T06:50:26;10.90;99.90
48752;DHT22;34544;48.836;9.174;2022-10-30T06:52:52;11.00;99.90
48752;DHT22;34544;48.836;9.174;2022-10-30T06:55:20;11.10;99.90
48752;DHT22;34544;48.836;9.174;2022-10-30T06:57:56;11.30;99.90
48752;DHT22;34544;48.836;9.174;2022-10-30T07:00:45;11.50;99.90
48752;DHT22;34544;48.836;9.174;2022-10-30T07:03:22;11.80;99.90
48752;DHT22;34544;48.836;9.174;2022-10-30T07:08:14;12.70;99.90
48752;DHT22;34544;48.836;9.174;2022-10-30T07:10:41;12.70;99.90
48752;DHT22;34544;48.836;9.174;2022-10-30T07:13:16;12.90;99.90
48752;DHT22;34544;48.836;9.174;2022-10-30T07:15:46;13.10;99.90
48752;DHT22;34544;48.836;9.174;2022-10-30T07:18:23;13.20;99.90
48752;DHT22;34544;48.836;9.174;2022-10-30T07:20:54;13.50;99.90
48752;DHT22;34544;48.836;9.174;2022-10-30T07:23:26;13.90;99.90
48752;DHT22;34544;48.836;9.174;2022-10-30T07:26:00;13.90;99.90
48752;DHT22;34544;48.836;9.174;2022-10-30T07:28:32;14.10;99.90
48752;DHT22;34544;48.836;9.174;2022-10-30T07:31:18;14.30;99.90
48752;DHT22;34544;48.836;9.174;2022-10-30T07:33:50;14.50;99.90
48752;DHT22;34544;48.836;9.174;2022-10-30T07:36:29;14.70;99.90
48752;DHT22;34544;48.836;9.174;2022-10-30T07:39:15;15.10;99.90
48752;DHT22;34544;48.836;9.174;2022-10-30T07:41:55;15.40;99.90
48752;DHT22;34544;48.836;9.174;2022-10-30T07:44:39;15.70;99.90
48752;DHT22;34544;48.836;9.174;2022-10-30T07:47:12;16.00;99.90
48752;DHT22;34544;48.836;9.174;2022-10-30T07:52:32;16.80;99.90
48752;DHT22;34544;48.836;9.174;2022-10-30T07:57:50;17.70;99.90
48752;DHT22;34544;48.836;9.174;2022-10-30T08:00:55;18.00;99.90
48752;DHT22;34544;48.836;9.174;2022-10-30T08:03:28;18.40;99.90
48752;DHT22;34544;48.836;9.174;2022-10-30T08:05:59;18.90;99.90
48752;DHT22;34544;48.836;9.174;2022-10-30T08:08:31;19.30;99.90
48752;DHT22;34544;48.836;9.174;2022-10-30T08:11:09;19.30;99.90
48752;DHT22;34544;48.836;9.174;2022-10-30T08:13:35;19.50;99.90
48752;DHT22;34544;48.836;9.174;2022-10-30T08:16:01;19.70;99.90
48752;DHT22;34544;48.836;9.174;2022-10-30T08:20:54;20.00;99.90
48752;DHT22;34544;48.836;9.174;2022-10-30T08:23:20;20.40;99.90
48752;DHT22;34544;48.836;9.174;2022-10-30T08:25:47;20.60;99.90
48752;DHT22;34544;48.836;9.174;2022-10-30T08:28:13;20.90;99.90
48752;DHT22;34544;48.836;9.174;2022-10-30T08:30:39;21.00;99.90
48752;DHT22;34544;48.836;9.174;2022-10-30T08:33:11;21.10;99.90
48752;DHT22;34544;48.836;9.174;2022-10-30T08:35:57;21.40;99.90
48752;DHT22;34544;48.836;9.174;2022-10-30T08:38:25;21.60;99.90
48752;DHT22;34544;48.836;9.174;2022-10-30T08:41:09;21.90;99.90
48752;DHT22;34544;48.836;9.174;2022-10-30T08:43:42;22.00;99.90
48752;DHT22;34544;48.836;9.174;2022-10-30T08:46:08;22.20;99.90
48752;DHT22;34544;48.836;9.174;2022-10-30T08:48:34;22.40;99.90
48752;DHT22;34544;48.836;9.174;2022-10-30T08:50:59;22.50;99.90
48752;DHT22;34544;48.836;9.174;2022-10-30T08:53:31;22.90;99.90
48752;DHT22;34544;48.836;9.174;2022-10-30T08:55:57;23.20;99.90
48752;DHT22;34544;48.836;9.174;2022-10-30T08:58:31;23.40;99.90
48752;DHT22;34544;48.836;9.174;2022-10-30T09:00:56;23.20;99.90
48752;DHT22;34544;48.836;9.174;2022-10-30T09:03:51;23.40;99.90
48752;DHT22;34544;48.836;9.174;2022-10-30T09:06:36;24.70;99.90
48752;DHT22;34544;48.836;9.174;2022-10-30T09:09:20;23.70;99.90
48752;DHT22;34544;48.836;9.174;2022-10-30T09:11:50;23.80;99.90
48752;DHT22;34544;48.836;9.174;2022-10-30T09:14:16;23.90;99.90
48752;DHT22;34544;48.836;9.174;2022-10-30T09:16:42;24.20;99.90
48752;DHT22;34544;48.836;9.174;2022-10-30T09:19:08;24.20;99.90
48752;DHT22;34544;48.836;9.174;2022-10-30T09:21:34;24.70;99.90
48752;DHT22;34544;48.836;9.174;2022-10-30T09:24:00;24.80;99.90
48752;DHT22;34544;48.836;9.174;2022-10-30T09:26:34;25.40;99.90
48752;DHT22;34544;48.836;9.174;2022-10-30T09:29:08;25.20;99.90
48752;DHT22;34544;48.836;9.174;2022-10-30T09:31:58;25.40;99.90
48752;DHT22;34544;48.836;9.174;2022-10-30T09:34:26;25.90;99.90
48752;DHT22;34544;48.836;9.174;2022-10-30T09:37:00;26.50;99.90
48752;DHT22;34544;48.836;9.174;2022-10-30T09:39:26;26.60;99.90
48752;DHT22;34544;48.836;9.174;2022-10-30T09:50:45;27.20;99.90
48752;DHT22;34544;48.836;9.174;2022-10-30T09:56:43;27.80;99.90
48752;DHT22;34544;48.836;9.174;2022-10-30T09:59:24;27.90;99.90
48752;DHT22;34544;48.836;9.174;2022-10-30T10:02:08;28.20;99.90
48752;DHT22;34544;48.836;9.174;2022-10-30T10:04:47;28.30;99.90
48752;DHT22;34544;48.836;9.174;2022-10-30T10:07:37;28.50;98.80
48752;DHT22;34544;48.836;9.174;2022-10-30T10:13:08;29.10;99.90
48752;DHT22;34544;48.836;9.174;2022-10-30T10:15:46;29.20;99.90
48752;DHT22;34544;48.836;9.174;2022-10-30T10:18:17;29.20;99.90
48752;DHT22;34544;48.836;9.174;2022-10-30T10:20:47;29.30;99.90
48752;DHT22;34544;48.836;9.174;2022-10-30T10:23:23;29.40;96.60
48752;DHT22;34544;48.836;9.174;2022-10-30T10:25:54;29.60;98.50
48752;DHT22;34544;48.836;9.174;2022-10-30T10:39:45;30.40;98.90
48752;DHT22;34544;48.836;9.174;2022-10-30T10:42:28;30.60;95.30
48752;DHT22;34544;48.836;9.174;2022-10-30T10:51:14;30.90;93.80
48752;DHT22;34544;48.836;9.174;2022-10-30T10:53:56;30.80;94.00
48752;DHT22;34544;48.836;9.174;2022-10-30T10:56:28;30.90;93.90
48752;DHT22;34544;48.836;9.174;2022-10-30T10:59:02;31.20;94.10
48752;DHT22;34544;48.836;9.174;2022-10-30T11:01:39;31.40;94.10
48752;DHT22;34544;48.836;9.174;2022-10-30T11:04:17;31.90;93.70
48752;DHT22;34544;48.836;9.174;2022-10-30T11:06:50;32.10;93.20
48752;DHT22;34544;48.836;9.174;2022-10-30T11:11:47;32.40;92.40
48752;DHT22;34544;48.836;9.174;2022-10-30T11:17:21;32.80;92.30
48752;DHT22;34544;48.836;9.174;2022-10-30T11:19:50;33.00;91.80
48752;DHT22;34544;48.836;9.174;2022-10-30T11:22:30;33.00;91.40
48752;DHT22;34544;48.836;9.174;2022-10-30T11:25:20;33.30;91.20
48752;DHT22;34544;48.836;9.174;2022-10-30T11:27:48;33.60;92.80
48752;DHT22;34544;48.836;9.174;2022-10-30T11:30:19;33.50;89.00
48752;DHT22;34544;48.836;9.174;2022-10-30T11:32:46;33.50;90.10
48752;DHT22;34544;48.836;9.174;2022-10-30T11:35:14;33.60;90.30
48752;DHT22;34544;48.836;9.174;2022-10-30T11:37:42;33.70;88.80
48752;DHT22;34544;48.836;9.174;2022-10-30T11:42:41;33.50;90.40
48752;DHT22;34544;48.836;9.174;2022-10-30T11:45:15;33.40;90.00
48752;DHT22;34544;48.836;9.174;2022-10-30T11:47:41;33.30;87.70
48752;DHT22;34544;48.836;9.174;2022-10-30T11:50:20;33.00;88.60
48752;DHT22;34544;48.836;9.174;2022-10-30T11:52:55;32.80;88.90
48752;DHT22;34544;48.836;9.174;2022-10-30T11:55:45;32.60;89.10
48752;DHT22;34544;48.836;9.174;2022-10-30T11:58:28;32.30;88.10
48752;DHT22;34544;48.836;9.174;2022-10-30T12:03:45;31.20;91.30
48752;DHT22;34544;48.836;9.174;2022-10-30T12:09:20;30.60;91.40
48752;DHT22;34544;48.836;9.174;2022-10-30T12:11:46;30.40;91.60
48752;DHT22;34544;48.836;9.174;2022-10-30T12:14:23;30.20;92.50
48752;DHT22;34544;48.836;9.174;2022-10-30T12:16:53;29.80;91.10
48752;DHT22;34544;48.836;9.174;2022-10-30T12:21:50;29.40;99.90
48752;DHT22;34544;48.836;9.174;2022-10-30T12:24:22;29.10;91.80
48752;DHT22;34544;48.836;9.174;2022-10-30T12:26:52;28.90;92.00
48752;DHT22;34544;48.836;9.174;2022-10-30T12:29:22;28.90;91.50
48752;DHT22;34544;48.836;9.174;2022-10-30T12:31:58;28.80;91.60
48752;DHT22;34544;48.836;9.174;2022-10-30T12:34:56;28.80;92.20
48752;DHT22;34544;48.836;9.174;2022-10-30T12:37:38;28.70;93.20
48752;DHT22;34544;48.836;9.174;2022-10-30T12:40:16;28.90;92.50
48752;DHT22;34544;48.836;9.174;2022-10-30T12:42:56;29.10;93.00
48752;DHT22;34544;48.836;9.174;2022-10-30T12:45:33;29.30;92.30
48752;DHT22;34544;48.836;9.174;2022-10-30T12:48:10;29.50;92.60
48752;DHT22;34544;48.836;9.174;2022-10-30T12:50:46;29.70;91.70
48752;DHT22;34544;48.836;9.174;2022-10-30T12:53:28;29.80;92.70
48752;DHT22;34544;48.836;9.174;2022-10-30T12:56:04;29.90;91.30
48752;DHT22;34544;48.836;9.174;2022-10-30T12:58:52;29.80;91.30
48752;DHT22;34544;48.836;9.174;2022-10-30T13:01:34;29.70;91.70
48752;DHT22;34544;48.836;9.174;2022-10-30T13:04:14;29.60;91.90
48752;DHT22;34544;48.836;9.174;2022-10-30T13:06:57;29.50;91.80
48752;DHT22;34544;48.836;9.174;2022-10-30T13:10:12;29.60;92.30
48752;DHT22;34544;48.836;9.174;2022-10-30T13:12:38;29.70;93.10
48752;DHT22;34544;48.836;9.174;2022-10-30T13:15:13;29.90;92.50
48752;DHT22;34544;48.836;9.174;2022-10-30T13:17:41;29.90;92.20
48752;DHT22;34544;48.836;9.174;2022-10-30T13:20:11;29.90;93.40
48752;DHT22;34544;48.836;9.174;2022-10-30T13:22:48;29.80;92.40
48752;DHT22;34544;48.836;9.174;2022-10-30T13:25:42;29.70;92.50
48752;DHT22;34544;48.836;9.174;2022-10-30T13:28:22;29.50;93.80
48752;DHT22;34544;48.836;9.174;2022-10-30T13:36:36;29.00;95.20
48752;DHT22;34544;48.836;9.174;2022-10-30T13:39:22;28.90;95.40
48752;DHT22;34544;48.836;9.174;2022-10-30T13:42:16;28.90;95.10
48752;DHT22;34544;48.836;9.174;2022-10-30T13:44:53;28.90;94.90
48752;DHT22;34544;48.836;9.174;2022-10-30T13:50:16;28.90;95.10
48752;DHT22;34544;48.836;9.174;2022-10-30T13:52:50;28.90;95.20
48752;DHT22;34544;48.836;9.174;2022-10-30T13:55:28;29.10;95.20
48752;DHT22;34544;48.836;9.174;2022-10-30T14:00:49;29.50;95.10
48752;DHT22;34544;48.836;9.174;2022-10-30T14:06:30;29.80;94.40
48752;DHT22;34544;48.836;9.174;2022-10-30T14:12:48;29.40;94.90
48752;DHT22;34544;48.836;9.174;2022-10-30T14:15:44;29.10;94.70
48752;DHT22;34544;48.836;9.174;2022-10-30T14:20:48;28.60;95.80
48752;DHT22;34544;48.836;9.174;2022-10-30T14:23:19;28.40;95.80
48752;DHT22;34544;48.836;9.174;2022-10-30T14:28:34;27.90;99.90
48752;DHT22;34544;48.836;9.174;2022-10-30T14:33:53;27.30;99.90
48752;DHT22;34544;48.836;9.174;2022-10-30T14:36:23;26.90;99.90
48752;DHT22;34544;48.836;9.174;2022-10-30T14:44:48;25.60;99.90
48752;DHT22;34544;48.836;9.174;2022-10-30T14:58:30;23.80;99.90
48752;DHT22;34544;48.836;9.174;2022-10-30T15:04:03;23.70;99.90
48752;DHT22;34544;48.836;9.174;2022-10-30T15:09:43;22.80;99.90
48752;DHT22;34544;48.836;9.174;2022-10-30T15:12:22;22.60;99.90
48752;DHT22;34544;48.836;9.174;2022-10-30T15:14:55;22.50;99.90
48752;DHT22;34544;48.836;9.174;2022-10-30T15:17:33;22.20;99.90
48752;DHT22;34544;48.836;9.174;2022-10-30T15:20:03;21.90;99.90
48752;DHT22;34544;48.836;9.174;2022-10-30T15:22:31;21.80;99.90
48752;DHT22;34544;48.836;9.174;2022-10-30T15:24:57;21.60;99.90
48752;DHT22;34544;48.836;9.174;2022-10-30T15:27:24;21.40;99.90
48752;DHT22;34544;48.836;9.174;2022-10-30T15:30:00;21.30;99.90
48752;DHT22;34544;48.836;9.174;2022-10-30T15:32:28;21.10;99.90
48752;DHT22;34544;48.836;9.174;2022-10-30T15:34:59;21.00;99.90
48752;DHT22;34544;48.836;9.174;2022-10-30T15:37:25;20.90;99.90
48752;DHT22;34544;48.836;9.174;2022-10-30T15:40:19;20.70;99.90
48752;DHT22;34544;48.836;9.174;2022-10-30T15:42:48;20.70;99.90
48752;DHT22;34544;48.836;9.174;2022-10-30T15:45:18;20.30;99.90
48752;DHT22;34544;48.836;9.174;2022-10-30T15:47:46;20.20;99.90
48752;DHT22;34544;48.836;9.174;2022-10-30T15:50:14;20.10;99.90
48752;DHT22;34544;48.836;9.174;2022-10-30T15:52:41;19.90;99.90
48752;DHT22;34544;48.836;9.174;2022-10-30T15:55:15;19.80;99.90
48752;DHT22;34544;48.836;9.174;2022-10-30T15:57:49;19.60;99.90
48752;DHT22;34544;48.836;9.174;2022-10-30T16:00:28;19.40;99.90
48752;DHT22;34544;48.836;9.174;2022-10-30T16:05:24;19.10;99.90
48752;DHT22;34544;48.836;9.174;2022-10-30T16:07:54;19.00;99.90
48752;DHT22;34544;48.836;9.174;2022-10-30T16:10:22;18.80;99.90
48752;DHT22;34544;48.836;9.174;2022-10-30T16:12:49;18.70;99.90
48752;DHT22;34544;48.836;9.174;2022-10-30T16:15:26;18.50;99.90
48752;DHT22;34544;48.836;9.174;2022-10-30T16:18:13;18.40;99.90
48752;DHT22;34544;48.836;9.174;2022-10-30T16:20:43;18.20;99.90
48752;DHT22;34544;48.836;9.174;2022-10-30T16:23:10;18.10;99.90
48752;DHT22;34544;48.836;9.174;2022-10-30T16:25:37;17.90;99.90
48752;DHT22;34544;48.836;9.174;2022-10-30T16:28:04;17.80;99.90
48752;DHT22;34544;48.836;9.174;2022-10-30T16:30:31;17.70;99.90
48752;DHT22;34544;48.836;9.174;2022-10-30T16:32:59;17.60;99.90
48752;DHT22;34544;48.836;9.174;2022-10-30T16:35:25;17.50;99.90
48752;DHT22;34544;48.836;9.174;2022-10-30T16:37:52;17.40;99.90
48752;DHT22;34544;48.836;9.174;2022-10-30T16:40:26;17.20;99.90
48752;DHT22;34544;48.836;9.174;2022-10-30T16:43:00;17.10;99.90
48752;DHT22;34544;48.836;9.174;2022-10-30T16:48:17;16.90;99.90
48752;DHT22;34544;48.836;9.174;2022-10-30T16:50:46;16.90;99.90
48752;DHT22;34544;48.836;9.174;2022-10-30T16:53:21;16.80;99.90
48752;DHT22;34544;48.836;9.174;2022-10-30T16:55:47;16.80;99.90
48752;DHT22;34544;48.836;9.174;2022-10-30T16:58:14;16.60;99.90
48752;DHT22;34544;48.836;9.174;2022-10-30T17:00:47;16.50;99.90
48752;DHT22;34544;48.836;9.174;2022-10-30T17:03:13;16.40;99.90
48752;DHT22;34544;48.836;9.174;2022-10-30T17:13:38;16.00;99.90
48752;DHT22;34544;48.836;9.174;2022-10-30T17:16:24;15.90;99.90
48752;DHT22;34544;48.836;9.174;2022-10-30T17:18:55;15.80;99.90
48752;DHT22;34544;48.836;9.174;2022-10-30T17:21:36;15.70;99.90
48752;DHT22;34544;48.836;9.174;2022-10-30T17:24:04;15.60;99.90
48752;DHT22;34544;48.836;9.174;2022-10-30T17:26:34;15.50;99.90
48752;DHT22;34544;48.836;9.174;2022-10-30T17:29:01;15.50;99.90
48752;DHT22;34544;48.836;9.174;2022-10-30T17:34:10;15.30;99.90
48752;DHT22;34544;48.836;9.174;2022-10-30T17:36:36;15.30;99.90
48752;DHT22;34544;48.836;9.174;2022-10-30T17:39:02;15.20;99.90
48752;DHT22;34544;48.836;9.174;2022-10-30T17:41:28;15.20;99.90
48752;DHT22;34544;48.836;9.174;2022-10-30T17:43:55;15.10;99.90
48752;DHT22;34544;48.836;9.174;2022-10-30T17:46:21;15.10;99.90
48752;DHT22;34544;48.836;9.174;2022-10-30T17:48:47;15.00;99.90
48752;DHT22;34544;48.836;9.174;2022-10-30T17:51:13;15.00;99.90
48752;DHT22;34544;48.836;9.174;2022-10-30T17:53:39;14.90;99.90
48752;DHT22;34544;48.836;9.174;2022-10-30T17:56:25;14.90;99.90
48752;DHT22;34544;48.836;9.174;2022-10-30T17:58:52;14.80;99.90
48752;DHT22;34544;48.836;9.174;2022-10-30T18:01:24;14.70;99.90
48752;DHT22;34544;48.836;9.174;2022-10-30T18:03:51;14.70;99.90
48752;DHT22;34544;48.836;9.174;2022-10-30T18:06:19;14.70;99.90
48752;DHT22;34544;48.836;9.174;2022-10-30T18:08:45;14.60;99.90
48752;DHT22;34544;48.836;9.174;2022-10-30T18:11:13;14.50;99.90
48752;DHT22;34544;48.836;9.174;2022-10-30T18:13:40;14.50;99.90
48752;DHT22;34544;48.836;9.174;2022-10-30T18:16:10;14.50;99.90
48752;DHT22;34544;48.836;9.174;2022-10-30T18:18:38;14.40;99.90
48752;DHT22;34544;48.836;9.174;2022-10-30T18:21:04;14.40;99.90
48752;DHT22;34544;48.836;9.174;2022-10-30T18:23:30;14.40;99.90
48752;DHT22;34544;48.836;9.174;2022-10-30T18:25:55;14.40;99.90
48752;DHT22;34544;48.836;9.174;2022-10-30T18:28:21;14.50;99.90